createdAt,value
2023-05-22T00:01:29.980Z,101488.91
2023-05-22T00:03:57.167Z,101488.94
2023-05-22T00:06:24.464Z,101489.81
2023-05-22T00:08:52.123Z,101491.56
2023-05-22T00:11:19.508Z,101490.72
2023-05-22T00:13:46.657Z,101490.75
2023-05-22T00:16:14.065Z,101478.56
2023-05-22T00:18:42.390Z,101474.19
2023-05-22T00:21:10.119Z,101477.69
2023-05-22T00:23:37.269Z,101476.84
2023-05-22T00:26:04.418Z,101470.75
2023-05-22T00:28:31.886Z,101479.47
2023-05-22T00:30:59.114Z,101458.53
2023-05-22T00:33:26.218Z,101466.38
2023-05-22T00:35:53.302Z,101466.28
2023-05-22T00:38:30.971Z,101473.28
2023-05-22T00:40:59.474Z,101474.13
2023-05-22T00:43:27.113Z,101469.75
2023-05-22T00:45:54.643Z,101465.41
2023-05-22T00:48:22.903Z,101467.16
2023-05-22T00:50:55.477Z,101461.94
2023-05-22T00:53:24.809Z,101451.47
2023-05-22T00:55:54.015Z,101451.50
2023-05-22T00:58:22.175Z,101441.88
2023-05-22T01:00:49.542Z,101436.69
2023-05-22T01:03:18.924Z,101427.94
2023-05-22T01:05:46.182Z,101420.06
2023-05-22T01:08:13.403Z,101427.84
2023-05-22T01:10:41.062Z,101428.78
2023-05-22T01:13:33.149Z,101430.50
2023-05-22T01:16:05.019Z,101430.50
2023-05-22T01:18:42.816Z,101419.19
2023-05-22T01:21:36.367Z,101414.84
2023-05-22T01:24:37.268Z,101414.88
2023-05-22T01:27:39.331Z,101411.38
2023-05-22T01:30:09.133Z,101417.50
2023-05-22T01:32:38.318Z,101410.53
2023-05-22T01:35:10.895Z,101403.56
2023-05-22T01:37:39.030Z,101406.16
2023-05-22T01:40:07.640Z,101401.78
2023-05-22T01:42:35.140Z,101401.78
2023-05-22T01:45:02.356Z,101406.13
2023-05-22T01:47:29.596Z,101400.03
2023-05-22T01:49:56.756Z,101399.19
2023-05-22T01:52:53.938Z,101397.44
2023-05-22T01:55:47.497Z,101390.41
2023-05-22T01:58:21.028Z,101386.03
2023-05-22T02:00:54.623Z,101387.72
2023-05-22T02:03:27.315Z,101380.78
2023-05-22T02:05:55.841Z,101372.94
2023-05-22T02:08:23.090Z,101374.66
2023-05-22T02:10:55.071Z,101366.00
2023-05-22T02:13:23.268Z,101365.09
2023-05-22T02:15:51.380Z,101374.66
2023-05-22T02:18:18.543Z,101378.97
2023-05-22T02:20:48.388Z,101373.75
2023-05-22T02:23:15.624Z,101375.50
2023-05-22T02:25:42.718Z,101381.59
2023-05-22T02:28:09.889Z,101380.69
2023-05-22T02:30:37.201Z,101372.03
2023-05-22T02:33:06.328Z,101369.44
2023-05-22T02:35:33.544Z,101367.66
2023-05-22T02:38:01.092Z,101370.28
2023-05-22T02:40:28.409Z,101365.03
2023-05-22T02:42:55.591Z,101360.69
2023-05-22T02:45:22.832Z,101369.38
2023-05-22T02:47:50.151Z,101371.13
2023-05-22T02:50:17.405Z,101362.44
2023-05-22T02:52:45.311Z,101359.88
2023-05-22T02:55:12.436Z,101354.63
2023-05-22T02:57:39.580Z,101349.41
2023-05-22T03:00:07.426Z,101358.16
2023-05-22T03:02:36.622Z,101351.16
2023-05-22T03:05:05.148Z,101353.75
2023-05-22T03:07:32.389Z,101346.78
2023-05-22T03:09:59.506Z,101347.69
2023-05-22T03:12:26.614Z,101343.34
2023-05-22T03:14:53.743Z,101344.25
2023-05-22T03:17:21.017Z,101347.72
2023-05-22T03:19:48.159Z,101342.44
2023-05-22T03:22:15.530Z,101345.00
2023-05-22T03:24:42.630Z,101345.00
2023-05-22T03:27:09.822Z,101347.63
2023-05-22T03:29:37.078Z,101348.50
2023-05-22T03:32:04.513Z,101342.41
2023-05-22T03:34:32.309Z,101341.50
2023-05-22T03:36:59.814Z,101355.44
2023-05-22T03:39:26.930Z,101359.78
2023-05-22T03:41:54.023Z,101357.13
2023-05-22T03:44:21.228Z,101344.88
2023-05-22T03:46:48.301Z,101347.44
2023-05-22T03:49:15.609Z,101345.72
2023-05-22T03:51:42.710Z,101347.44
2023-05-22T03:54:09.948Z,101354.34
2023-05-22T03:56:37.442Z,101354.38
2023-05-22T03:59:04.608Z,101359.59
2023-05-22T04:01:31.763Z,101363.94
2023-05-22T04:03:58.975Z,101362.09
2023-05-22T04:06:26.638Z,101361.97
2023-05-22T04:08:53.768Z,101349.81
2023-05-22T04:11:22.250Z,101346.28
2023-05-22T04:13:51.184Z,101346.19
2023-05-22T04:16:18.797Z,101346.19
2023-05-22T04:18:46.191Z,101359.31
2023-05-22T04:21:13.431Z,101347.00
2023-05-22T04:23:43.318Z,101360.88
2023-05-22T04:26:10.460Z,101364.38
2023-05-22T04:28:38.050Z,101383.59
2023-05-22T04:31:06.662Z,101378.41
2023-05-22T04:33:34.669Z,101381.81
2023-05-22T04:36:02.739Z,101388.69
2023-05-22T04:38:30.037Z,101386.19
2023-05-22T04:40:58.149Z,101400.06
2023-05-22T04:43:26.781Z,101395.81
2023-05-22T04:45:54.768Z,101398.47
2023-05-22T04:48:23.012Z,101403.75
2023-05-22T04:50:50.296Z,101395.09
2023-05-22T04:53:17.661Z,101397.78
2023-05-22T04:55:46.027Z,101415.22
2023-05-22T04:58:13.185Z,101407.31
2023-05-22T05:00:40.583Z,101408.22
2023-05-22T05:03:08.439Z,101414.34
2023-05-22T05:05:35.674Z,101418.72
2023-05-22T05:08:03.037Z,101405.72
2023-05-22T05:10:30.157Z,101403.91
2023-05-22T05:12:57.394Z,101410.94
2023-05-22T05:15:24.565Z,101416.09
2023-05-22T05:17:52.338Z,101414.41
2023-05-22T05:20:20.147Z,101407.50
2023-05-22T05:22:47.624Z,101411.00
2023-05-22T05:25:14.747Z,101407.59
2023-05-22T05:27:41.927Z,101404.97
2023-05-22T05:30:09.474Z,101405.00
2023-05-22T05:32:37.032Z,101407.66
2023-05-22T05:35:04.665Z,101405.94
2023-05-22T05:37:31.816Z,101406.84
2023-05-22T05:39:59.008Z,101392.03
2023-05-22T05:42:26.161Z,101397.31
2023-05-22T05:44:53.337Z,101393.00
2023-05-22T05:47:24.073Z,101395.63
2023-05-22T05:49:51.373Z,101399.19
2023-05-22T05:52:18.583Z,101391.34
2023-05-22T05:54:48.052Z,101402.69
2023-05-22T05:57:15.835Z,101398.41
2023-05-22T05:59:43.087Z,101395.81
2023-05-22T06:02:10.212Z,101394.06
2023-05-22T06:04:37.355Z,101389.75
2023-05-22T06:07:05.128Z,101383.72
2023-05-22T06:09:32.297Z,101388.09
2023-05-22T06:11:59.442Z,101393.34
2023-05-22T06:14:26.543Z,101394.22
2023-05-22T06:16:53.670Z,101399.44
2023-05-22T06:19:21.155Z,101396.00
2023-05-22T06:21:50.255Z,101390.75
2023-05-22T06:24:18.631Z,101381.16
2023-05-22T06:26:45.882Z,101397.72
2023-05-22T06:29:13.058Z,101395.09
2023-05-22T06:31:40.351Z,101394.19
2023-05-22T06:34:07.791Z,101400.28
2023-05-22T06:36:35.324Z,101402.84
2023-05-22T06:39:02.937Z,101411.56
2023-05-22T06:41:30.030Z,101401.94
2023-05-22T06:43:57.217Z,101408.03
2023-05-22T06:46:25.939Z,101407.88
2023-05-22T06:48:54.377Z,101420.91
2023-05-22T06:51:21.538Z,101415.69
2023-05-22T06:53:48.651Z,101423.38
2023-05-22T06:56:16.131Z,101418.19
2023-05-22T06:58:43.353Z,101422.50
2023-05-22T07:01:10.526Z,101414.56
2023-05-22T07:03:37.707Z,101418.00
2023-05-22T07:06:06.412Z,101422.22
2023-05-22T07:08:34.119Z,101422.97
2023-05-22T07:11:02.053Z,101424.66
2023-05-22T07:13:32.140Z,101420.19
2023-05-22T07:15:59.355Z,101430.63
2023-05-22T07:18:26.468Z,101424.38
2023-05-22T07:20:53.652Z,101439.47
2023-05-22T07:23:21.398Z,101427.03
2023-05-22T07:25:48.559Z,101429.47
2023-05-22T07:28:15.974Z,101434.50
2023-05-22T07:30:43.152Z,101432.66
2023-05-22T07:33:10.394Z,101438.63
2023-05-22T07:35:37.754Z,101431.38
2023-05-22T07:38:05.232Z,101419.88
2023-05-22T07:40:32.369Z,101435.31
2023-05-22T07:42:59.648Z,101438.81
2023-05-22T07:45:26.945Z,101428.91
2023-05-22T07:47:56.216Z,101436.94
2023-05-22T07:50:26.592Z,101429.19
2023-05-22T07:52:53.898Z,101432.75
2023-05-22T07:55:21.081Z,101433.78
2023-05-22T07:57:48.248Z,101444.31
2023-05-22T08:00:16.958Z,101439.13
2023-05-22T08:02:45.066Z,101436.31
2023-05-22T08:05:12.676Z,101438.00
2023-05-22T08:07:39.905Z,101438.38
2023-05-22T08:10:14.775Z,101428.84
2023-05-22T08:12:41.933Z,101441.34
2023-05-22T08:15:09.453Z,101450.09
2023-05-22T08:17:36.947Z,101452.97
2023-05-22T08:20:05.680Z,101449.53
2023-05-22T08:22:34.270Z,101455.25
2023-05-22T08:25:01.566Z,101457.53
2023-05-22T08:27:28.709Z,101459.06
2023-05-22T08:29:56.266Z,101462.88
2023-05-22T08:32:23.403Z,101453.25
2023-05-22T08:34:51.059Z,101453.84
2023-05-22T08:37:18.489Z,101451.81
2023-05-22T08:39:45.745Z,101447.72
2023-05-22T08:42:13.572Z,101443.38
2023-05-22T08:44:40.909Z,101436.31
2023-05-22T08:47:14.121Z,101444.00
2023-05-22T08:49:42.159Z,101450.00
2023-05-22T08:52:48.029Z,101440.84
2023-05-22T08:55:16.537Z,101435.72
2023-05-22T08:57:44.670Z,101443.56
2023-05-22T09:00:12.496Z,101442.09
2023-05-22T09:02:39.948Z,101446.13
2023-05-22T09:05:08.500Z,101445.00
2023-05-22T09:07:38.005Z,101435.03
2023-05-22T09:10:07.098Z,101436.66
2023-05-22T09:12:34.824Z,101446.66
2023-05-22T09:15:10.331Z,101428.69
2023-05-22T09:17:41.237Z,101434.38
2023-05-22T09:20:13.290Z,101427.19
2023-05-22T09:22:40.627Z,101440.84
2023-05-22T09:25:08.320Z,101435.94
2023-05-22T09:27:35.627Z,101426.03
2023-05-22T09:30:02.872Z,101414.25
2023-05-22T09:32:31.176Z,101419.81
2023-05-22T09:35:05.396Z,101421.75
2023-05-22T09:37:36.528Z,101418.09
2023-05-22T09:40:06.739Z,101420.28
2023-05-22T09:42:35.206Z,101419.75
2023-05-22T09:45:07.283Z,101424.84
2023-05-22T09:47:36.684Z,101408.41
2023-05-22T09:50:07.128Z,101409.88
2023-05-22T09:52:36.355Z,101424.38
2023-05-22T09:55:06.138Z,101416.53
2023-05-22T09:57:41.485Z,101411.41
2023-05-22T10:00:13.060Z,101414.50
2023-05-22T10:02:45.107Z,101422.22
2023-05-22T10:05:21.254Z,101428.28
2023-05-22T10:07:57.059Z,101424.47
2023-05-22T10:10:26.996Z,101413.81
2023-05-22T10:13:01.048Z,101421.97
2023-05-22T10:15:28.254Z,101419.97
2023-05-22T10:17:55.784Z,101412.28
2023-05-22T10:20:24.319Z,101417.75
2023-05-22T10:22:54.196Z,101411.41
2023-05-22T10:25:25.856Z,101416.22
2023-05-22T10:27:54.824Z,101412.47
2023-05-22T10:30:44.821Z,101413.56
2023-05-22T10:33:18.268Z,101419.13
2023-05-22T10:36:19.735Z,101411.66
2023-05-22T10:38:55.959Z,101401.69
2023-05-22T10:41:24.151Z,101403.53
2023-05-22T10:43:52.266Z,101400.50
2023-05-22T10:46:19.929Z,101393.69
2023-05-22T10:48:48.711Z,101391.56
2023-05-22T10:51:21.163Z,101393.84
2023-05-22T10:53:55.319Z,101392.84
2023-05-22T10:56:25.257Z,101400.25
2023-05-22T10:58:58.331Z,101400.63
2023-05-22T11:01:26.532Z,101392.63
2023-05-22T11:04:00.378Z,101398.16
2023-05-22T11:06:33.442Z,101399.66
2023-05-22T11:09:31.630Z,101405.66
2023-05-22T11:12:17.786Z,101402.19
2023-05-22T11:14:50.026Z,101396.41
2023-05-22T11:17:20.471Z,101386.88
2023-05-22T11:19:59.568Z,101396.13
2023-05-22T11:22:56.932Z,101394.47
2023-05-22T11:25:26.489Z,101390.53
2023-05-22T11:27:55.205Z,101377.47
2023-05-22T11:30:26.810Z,101383.75
2023-05-22T11:32:53.989Z,101371.94
2023-05-22T11:35:22.364Z,101372.47
2023-05-22T11:37:51.370Z,101373.31
2023-05-22T11:40:21.351Z,101369.34
2023-05-22T11:42:48.782Z,101374.53
2023-05-22T11:45:17.777Z,101367.47
2023-05-22T11:47:45.720Z,101365.00
2023-05-22T11:50:13.485Z,101367.88
2023-05-22T11:52:42.654Z,101370.53
2023-05-22T11:55:11.019Z,101363.50
2023-05-22T11:57:38.353Z,101360.78
2023-05-22T12:00:08.534Z,101367.03
2023-05-22T12:02:44.580Z,101357.00
2023-05-22T12:05:12.011Z,101368.41
2023-05-22T12:07:39.209Z,101368.16
2023-05-22T12:10:07.395Z,101364.09
2023-05-22T12:12:35.098Z,101367.63
2023-05-22T12:15:06.522Z,101370.47
2023-05-22T12:17:38.043Z,101361.16
2023-05-22T12:20:12.350Z,101369.63
2023-05-22T12:22:43.675Z,101372.97
2023-05-22T12:25:20.617Z,101369.31
2023-05-22T12:27:48.197Z,101370.34
2023-05-22T12:30:16.837Z,101372.63
2023-05-22T12:32:48.815Z,101368.38
2023-05-22T12:35:17.149Z,101379.59
2023-05-22T12:37:51.673Z,101374.81
2023-05-22T12:40:19.587Z,101375.41
2023-05-22T12:42:47.862Z,101370.03
2023-05-22T12:45:15.164Z,101371.53
2023-05-22T12:47:42.511Z,101361.19
2023-05-22T12:50:09.679Z,101364.28
2023-05-22T12:52:36.866Z,101371.41
2023-05-22T12:55:04.597Z,101367.88
2023-05-22T12:57:31.856Z,101362.97
2023-05-22T12:59:59.006Z,101371.06
2023-05-22T13:02:26.159Z,101385.84
2023-05-22T13:04:53.409Z,101381.59
2023-05-22T13:07:20.561Z,101384.44
2023-05-22T13:09:47.725Z,101389.03
2023-05-22T13:12:14.926Z,101389.25
2023-05-22T13:14:42.119Z,101395.78
2023-05-22T13:17:09.330Z,101391.09
2023-05-22T13:19:37.100Z,101384.97
2023-05-22T13:22:05.204Z,101383.59
2023-05-22T13:24:32.633Z,101386.25
2023-05-22T13:26:59.759Z,101382.69
2023-05-22T13:29:26.877Z,101390.91
2023-05-22T13:31:54.020Z,101384.56
2023-05-22T13:34:21.490Z,101393.00
2023-05-22T13:36:48.866Z,101384.16
2023-05-22T13:39:16.618Z,101396.22
2023-05-22T13:41:44.925Z,101397.09
2023-05-22T13:44:12.328Z,101394.97
2023-05-22T13:46:40.949Z,101400.66
2023-05-22T13:49:08.318Z,101398.53
2023-05-22T13:51:35.893Z,101405.66
2023-05-22T13:54:03.839Z,101407.22
2023-05-22T13:56:31.250Z,101408.44
2023-05-22T13:58:58.497Z,101406.91
2023-05-22T14:01:25.697Z,101417.34
2023-05-22T14:03:52.901Z,101422.31
2023-05-22T14:06:20.120Z,101419.91
2023-05-22T14:08:47.241Z,101422.09
2023-05-22T14:11:14.704Z,101419.16
2023-05-22T14:13:41.824Z,101428.66
2023-05-22T14:16:09.048Z,101428.53
2023-05-22T14:18:36.946Z,101430.25
2023-05-22T14:21:04.973Z,101435.19
2023-05-22T14:23:32.288Z,101437.50
2023-05-22T14:25:59.418Z,101432.81
2023-05-22T14:28:26.802Z,101444.81
2023-05-22T14:30:54.073Z,101427.91
2023-05-22T14:33:21.298Z,101443.16
2023-05-22T14:35:48.628Z,101444.63
2023-05-22T14:38:15.841Z,101453.34
2023-05-22T14:40:42.960Z,101446.94
2023-05-22T14:43:10.234Z,101460.38
2023-05-22T14:45:37.773Z,101457.56
2023-05-22T14:48:05.540Z,101458.25
2023-05-22T14:50:32.617Z,101461.47
2023-05-22T14:52:59.721Z,101462.53
2023-05-22T14:55:28.213Z,101453.16
2023-05-22T14:57:55.876Z,101455.59
2023-05-22T15:00:23.168Z,101463.78
2023-05-22T15:02:50.500Z,101471.53
2023-05-22T15:05:17.815Z,101455.69
2023-05-22T15:07:47.242Z,101452.56
2023-05-22T15:10:15.608Z,101457.16
2023-05-22T15:12:42.773Z,101460.84
2023-05-22T15:15:10.325Z,101460.13
2023-05-22T15:17:38.203Z,101454.44
2023-05-22T15:20:07.062Z,101467.47
2023-05-22T15:22:34.172Z,101473.44
2023-05-22T15:25:06.753Z,101477.06
2023-05-22T15:27:35.508Z,101481.44
2023-05-22T15:30:04.623Z,101474.44
2023-05-22T15:32:32.850Z,101490.84
2023-05-22T15:35:00.445Z,101481.88
2023-05-22T15:37:30.218Z,101493.72
2023-05-22T15:39:58.742Z,101503.47
2023-05-22T15:42:25.879Z,101499.16
2023-05-22T15:44:53.183Z,101502.34
2023-05-22T15:47:20.769Z,101508.56
2023-05-22T15:49:48.467Z,101508.72
2023-05-22T15:52:15.776Z,101505.63
2023-05-22T15:54:42.952Z,101511.84
2023-05-22T15:57:10.423Z,101511.50
2023-05-22T15:59:37.552Z,101507.03
2023-05-22T16:02:04.970Z,101501.50
2023-05-22T16:04:32.162Z,101510.63
2023-05-22T16:06:59.355Z,101500.03
2023-05-22T16:09:26.463Z,101504.78
2023-05-22T16:11:53.608Z,101499.97
2023-05-22T16:14:21.521Z,101500.97
2023-05-22T16:16:48.621Z,101507.47
2023-05-22T16:19:15.876Z,101497.88
2023-05-22T16:21:42.989Z,101510.94
2023-05-22T16:24:10.945Z,101502.25
2023-05-22T16:26:39.174Z,101501.63
2023-05-22T16:29:08.764Z,101516.59
2023-05-22T16:31:36.018Z,101510.31
2023-05-22T16:34:04.285Z,101514.63
2023-05-22T16:36:32.452Z,101520.75
2023-05-22T16:38:59.636Z,101528.59
2023-05-22T16:41:26.848Z,101524.00
2023-05-22T16:43:54.145Z,101523.03
2023-05-22T16:46:21.596Z,101533.28
2023-05-22T16:48:48.843Z,101520.22
2023-05-22T16:51:16.170Z,101520.25
2023-05-22T16:53:43.859Z,101522.53
2023-05-22T16:56:10.978Z,101524.94
2023-05-22T16:58:38.667Z,101532.44
2023-05-22T17:01:08.773Z,101526.81
2023-05-22T17:03:36.401Z,101529.53
2023-05-22T17:06:04.936Z,101523.38
2023-05-22T17:08:32.230Z,101529.25
2023-05-22T17:10:59.412Z,101534.75
2023-05-22T17:13:26.674Z,101524.44
2023-05-22T17:15:53.857Z,101531.66
2023-05-22T17:18:21.302Z,101537.91
2023-05-22T17:20:54.035Z,101528.69
2023-05-22T17:23:22.158Z,101533.16
2023-05-22T17:25:50.999Z,101553.38
2023-05-22T17:28:18.405Z,101541.53
2023-05-22T17:30:46.307Z,101541.53
2023-05-22T17:33:14.233Z,101546.84
2023-05-22T17:35:42.037Z,101557.56
2023-05-22T17:38:09.253Z,101544.47
2023-05-22T17:40:44.849Z,101551.44
2023-05-22T17:43:13.917Z,101550.69
2023-05-22T17:45:41.836Z,101555.28
2023-05-22T17:48:09.332Z,101553.38
2023-05-22T17:50:36.584Z,101544.50
2023-05-22T17:53:03.683Z,101553.09
2023-05-22T17:55:30.825Z,101549.56
2023-05-22T17:57:59.094Z,101559.94
2023-05-22T18:00:26.231Z,101557.56
2023-05-22T18:02:53.445Z,101556.69
2023-05-22T18:05:20.998Z,101559.47
2023-05-22T18:07:48.310Z,101568.44
2023-05-22T18:10:15.517Z,101566.75
2023-05-22T18:12:42.621Z,101565.69
2023-05-22T18:15:12.062Z,101570.09
2023-05-22T18:17:40.004Z,101561.56
2023-05-22T18:20:09.325Z,101562.44
2023-05-22T18:22:38.167Z,101572.09
2023-05-22T18:25:06.776Z,101569.59
2023-05-22T18:27:35.109Z,101566.94
2023-05-22T18:30:03.690Z,101571.41
2023-05-22T18:32:31.861Z,101580.16
2023-05-22T18:34:59.703Z,101578.53
2023-05-22T18:37:26.792Z,101581.97
2023-05-22T18:39:53.903Z,101582.94
2023-05-22T18:42:21.584Z,101583.94
2023-05-22T18:44:49.484Z,101590.09
2023-05-22T18:47:17.034Z,101590.94
2023-05-22T18:49:44.206Z,101582.16
2023-05-22T18:52:11.435Z,101583.84
2023-05-22T18:54:38.612Z,101589.09
2023-05-22T18:57:06.375Z,101591.63
2023-05-22T18:59:33.540Z,101592.50
2023-05-22T19:02:00.671Z,101589.03
2023-05-22T19:04:27.949Z,101592.59
2023-05-22T19:06:56.436Z,101588.28
2023-05-22T19:09:24.518Z,101593.56
2023-05-22T19:11:52.125Z,101597.94
2023-05-22T19:14:19.571Z,101596.25
2023-05-22T19:16:46.738Z,101603.28
2023-05-22T19:19:15.031Z,101603.31
2023-05-22T19:21:42.345Z,101605.13
2023-05-22T19:24:09.581Z,101603.41
2023-05-22T19:26:36.797Z,101610.44
2023-05-22T19:29:03.961Z,101620.94
2023-05-22T19:31:31.204Z,101624.44
2023-05-22T19:33:58.476Z,101627.91
2023-05-22T19:36:25.690Z,101635.78
2023-05-22T19:38:53.607Z,101638.44
2023-05-22T19:41:22.756Z,101639.34
2023-05-22T19:43:51.307Z,101648.94
2023-05-22T19:46:18.735Z,101643.72
2023-05-22T19:48:45.979Z,101634.97
2023-05-22T19:51:13.223Z,101650.72
2023-05-22T19:53:41.426Z,101646.34
2023-05-22T19:56:08.626Z,101656.88
2023-05-22T19:58:39.763Z,101667.34
2023-05-22T20:01:06.988Z,101669.94
2023-05-22T20:03:34.221Z,101680.38
2023-05-22T20:06:01.438Z,101677.75
2023-05-22T20:08:29.060Z,101682.13
2023-05-22T20:10:56.301Z,101675.09
2023-05-22T20:13:23.540Z,101682.09
2023-05-22T20:15:53.559Z,101689.03
2023-05-22T20:18:22.925Z,101699.50
2023-05-22T20:20:50.198Z,101694.28
2023-05-22T20:23:17.376Z,101676.78
2023-05-22T20:25:45.247Z,101695.97
2023-05-22T20:28:12.482Z,101688.16
2023-05-22T20:30:39.626Z,101701.22
2023-05-22T20:33:06.827Z,101701.22
2023-05-22T20:35:34.219Z,101708.25
2023-05-22T20:38:04.587Z,101709.03
2023-05-22T20:40:32.432Z,101713.38
2023-05-22T20:43:02.559Z,101722.06
2023-05-22T20:45:30.537Z,101730.72
2023-05-22T20:47:58.112Z,101727.06
2023-05-22T20:50:25.268Z,101748.84
2023-05-22T20:52:52.784Z,101754.81
2023-05-22T20:55:19.967Z,101764.47
2023-05-22T20:57:47.109Z,101759.03
2023-05-22T21:00:15.057Z,101758.13
2023-05-22T21:02:42.415Z,101756.28
2023-05-22T21:05:09.765Z,101764.94
2023-05-22T21:07:36.929Z,101764.81
2023-05-22T21:10:04.208Z,101767.34
2023-05-22T21:12:31.303Z,101775.22
2023-05-22T21:14:58.544Z,101758.53
2023-05-22T21:17:26.142Z,101757.63
2023-05-22T21:19:53.497Z,101754.13
2023-05-22T21:22:21.188Z,101769.91
2023-05-22T21:24:48.389Z,101768.00
2023-05-22T21:27:15.557Z,101772.34
2023-05-22T21:29:42.719Z,101774.00
2023-05-22T21:32:09.834Z,101780.13
2023-05-22T21:34:37.019Z,101768.94
2023-05-22T21:37:04.284Z,101775.06
2023-05-22T21:39:31.401Z,101768.84
2023-05-22T21:41:58.502Z,101762.59
2023-05-22T21:44:25.805Z,101782.59
2023-05-22T21:46:56.030Z,101785.31
2023-05-22T21:49:23.250Z,101780.19
2023-05-22T21:51:50.354Z,101772.34
2023-05-22T21:54:17.460Z,101780.28
2023-05-22T21:56:45.101Z,101786.31
2023-05-22T21:59:12.260Z,101782.69
2023-05-22T22:01:39.544Z,101780.91
2023-05-22T22:04:06.922Z,101782.75
2023-05-22T22:06:34.125Z,101778.25
2023-05-22T22:09:03.470Z,101786.19
2023-05-22T22:11:30.740Z,101782.69
2023-05-22T22:13:57.851Z,101773.88
2023-05-22T22:16:25.085Z,101781.69
2023-05-22T22:18:52.668Z,101789.41
2023-05-22T22:21:21.593Z,101784.97
2023-05-22T22:23:48.733Z,101779.72
2023-05-22T22:26:16.267Z,101789.47
2023-05-22T22:28:43.629Z,101785.97
2023-05-22T22:31:13.970Z,101787.69
2023-05-22T22:33:41.116Z,101781.56
2023-05-22T22:36:08.872Z,101785.09
2023-05-22T22:38:36.176Z,101771.06
2023-05-22T22:41:04.953Z,101779.69
2023-05-22T22:43:32.076Z,101769.25
2023-05-22T22:45:59.253Z,101764.81
2023-05-22T22:48:26.674Z,101772.78
2023-05-22T22:50:53.869Z,101770.19
2023-05-22T22:53:21.093Z,101773.69
2023-05-22T22:55:48.949Z,101786.81
2023-05-22T22:58:18.750Z,101783.28
2023-05-22T23:00:45.996Z,101780.59
2023-05-22T23:03:13.278Z,101781.41
2023-05-22T23:05:40.814Z,101781.41
2023-05-22T23:08:08.215Z,101776.94
2023-05-22T23:10:36.277Z,101787.34
2023-05-22T23:13:03.468Z,101782.09
2023-05-22T23:15:30.873Z,101792.63
2023-05-22T23:17:57.976Z,101794.22
2023-05-22T23:20:25.067Z,101794.22
2023-05-22T23:22:52.665Z,101799.44
2023-05-22T23:25:19.909Z,101806.19
2023-05-22T23:27:47.107Z,101812.31
2023-05-22T23:30:14.292Z,101812.09
2023-05-22T23:32:41.469Z,101827.72
2023-05-22T23:35:09.657Z,101814.03
2023-05-22T23:37:36.912Z,101808.38
2023-05-22T23:40:06.271Z,101813.59
2023-05-22T23:42:35.260Z,101817.91
2023-05-22T23:45:04.199Z,101807.53
2023-05-22T23:47:31.639Z,101819.69
2023-05-22T23:49:59.992Z,101817.84
2023-05-22T23:52:27.656Z,101826.47
2023-05-22T23:54:54.818Z,101821.09
2023-05-22T23:57:22.428Z,101822.81
2023-05-22T23:59:49.599Z,101820.34
